createdAt,value
2019-03-27T00:02:24.608Z,7.80
2019-03-27T00:04:57.329Z,7.43
2019-03-27T00:07:29.739Z,6.83
2019-03-27T00:10:02.241Z,7.33
2019-03-27T00:12:34.769Z,7.13
2019-03-27T00:15:13.445Z,8.33
2019-03-27T00:17:43.717Z,8.50
2019-03-27T00:20:16.718Z,8.53
2019-03-27T00:22:50.082Z,9.10
2019-03-27T00:25:22.492Z,9.03
2019-03-27T00:27:54.921Z,7.78
2019-03-27T00:30:27.479Z,8.27
2019-03-27T00:33:00.009Z,9.00
2019-03-27T00:35:32.597Z,9.20
2019-03-27T00:38:06.012Z,8.40
2019-03-27T00:40:38.625Z,8.00
2019-03-27T00:43:11.450Z,7.23
2019-03-27T00:45:43.941Z,9.70
2019-03-27T00:48:16.348Z,7.47
2019-03-27T00:50:48.895Z,7.73
2019-03-27T00:53:21.547Z,7.17
2019-03-27T00:55:54.119Z,7.33
2019-03-27T00:58:26.535Z,6.70
2019-03-27T01:01:17.339Z,8.63
2019-03-27T01:03:49.742Z,8.47
2019-03-27T01:06:22.550Z,8.23
2019-03-27T01:08:54.943Z,6.90
2019-03-27T01:11:27.412Z,9.27
2019-03-27T01:13:59.933Z,7.92
2019-03-27T01:16:32.365Z,8.17
2019-03-27T01:19:04.866Z,8.03
2019-03-27T01:21:37.571Z,7.33
2019-03-27T01:24:10.358Z,7.03
2019-03-27T01:26:42.811Z,7.37
2019-03-27T01:29:15.224Z,7.93
2019-03-27T01:31:47.737Z,7.73
2019-03-27T01:34:20.230Z,8.27
2019-03-27T01:36:53.067Z,7.40
2019-03-27T01:39:25.499Z,7.47
2019-03-27T01:41:57.957Z,7.50
2019-03-27T01:44:30.440Z,6.93
2019-03-27T01:47:02.976Z,7.83
2019-03-27T01:49:35.463Z,7.97
2019-03-27T01:52:08.299Z,7.70
2019-03-27T01:54:40.798Z,7.30
2019-03-27T01:57:13.288Z,6.80
2019-03-27T01:59:45.751Z,7.67
2019-03-27T02:02:18.262Z,7.67
2019-03-27T02:04:50.678Z,7.50
2019-03-27T02:07:23.194Z,7.53
2019-03-27T02:09:55.596Z,7.37
2019-03-27T02:12:28.079Z,7.80
2019-03-27T02:15:00.568Z,7.80
2019-03-27T02:17:33.308Z,8.63
2019-03-27T02:20:06.277Z,8.33
2019-03-27T02:22:38.795Z,8.70
2019-03-27T02:25:11.362Z,7.97
2019-03-27T02:27:43.828Z,7.12
2019-03-27T02:30:16.473Z,7.27
2019-03-27T02:32:48.836Z,7.70
2019-03-27T02:35:21.257Z,7.90
2019-03-27T02:37:53.688Z,6.83
2019-03-27T02:40:26.300Z,7.70
2019-03-27T02:42:58.796Z,7.63
2019-03-27T02:45:31.879Z,6.47
2019-03-27T02:48:04.320Z,8.07
2019-03-27T02:50:36.835Z,6.20
2019-03-27T02:53:09.467Z,7.30
2019-03-27T02:55:42.071Z,6.70
2019-03-27T02:58:14.583Z,7.63
2019-03-27T03:00:47.047Z,7.93
2019-03-27T03:03:19.460Z,7.30
2019-03-27T03:05:51.890Z,6.97
2019-03-27T03:08:24.395Z,8.30
2019-03-27T03:10:57.041Z,7.00
2019-03-27T03:13:29.474Z,7.30
2019-03-27T03:16:01.950Z,7.70
2019-03-27T03:18:34.355Z,7.07
2019-03-27T03:21:06.795Z,7.27
2019-03-27T03:23:39.183Z,7.12
2019-03-27T03:26:11.831Z,6.73
2019-03-27T03:28:44.223Z,7.20
2019-03-27T03:31:16.848Z,6.33
2019-03-27T03:33:49.276Z,7.30
2019-03-27T03:36:21.701Z,7.53
2019-03-27T03:38:54.084Z,7.50
2019-03-27T03:41:26.616Z,6.70
2019-03-27T03:43:59.070Z,6.55
2019-03-27T03:46:31.511Z,7.00
2019-03-27T03:49:04.045Z,6.90
2019-03-27T03:51:36.785Z,7.53
2019-03-27T03:54:09.704Z,7.30
2019-03-27T03:56:44.515Z,7.03
2019-03-27T03:59:18.036Z,6.80
2019-03-27T04:01:53.672Z,7.63
2019-03-27T04:04:26.457Z,7.57
2019-03-27T04:06:59.405Z,7.45
2019-03-27T04:09:31.783Z,8.30
2019-03-27T04:12:04.941Z,7.54
2019-03-27T04:14:37.356Z,7.05
2019-03-27T04:17:16.952Z,6.93
2019-03-27T04:19:43.905Z,7.13
2019-03-27T04:22:16.467Z,7.20
2019-03-27T04:24:48.918Z,7.47
2019-03-27T04:27:21.948Z,6.37
2019-03-27T04:29:54.402Z,7.60
2019-03-27T04:32:26.818Z,7.57
2019-03-27T04:35:00.522Z,7.97
2019-03-27T04:37:33.156Z,8.17
2019-03-27T04:40:05.911Z,7.85
2019-03-27T04:42:39.039Z,7.05
2019-03-27T04:45:11.443Z,7.90
2019-03-27T04:47:43.887Z,8.10
2019-03-27T04:50:16.495Z,6.23
2019-03-27T04:52:49.015Z,6.35
2019-03-27T04:55:21.488Z,7.63
2019-03-27T04:57:53.887Z,7.07
2019-03-27T05:00:26.705Z,7.43
2019-03-27T05:02:59.125Z,7.20
2019-03-27T05:05:31.670Z,6.90
2019-03-27T05:08:04.091Z,7.73
2019-03-27T05:10:36.527Z,7.73
2019-03-27T05:13:08.925Z,7.10
2019-03-27T05:15:41.688Z,7.50
2019-03-27T05:18:14.089Z,7.33
2019-03-27T05:20:46.978Z,7.97
2019-03-27T05:23:19.349Z,6.53
2019-03-27T05:25:51.878Z,7.07
2019-03-27T05:28:24.315Z,7.97
2019-03-27T05:30:57.402Z,7.97
2019-03-27T05:33:32.668Z,7.03
2019-03-27T05:36:04.391Z,7.67
2019-03-27T05:38:36.812Z,7.73
2019-03-27T05:41:09.290Z,7.80
2019-03-27T05:43:41.720Z,8.60
2019-03-27T05:46:15.440Z,8.07
2019-03-27T05:48:49.148Z,8.50
2019-03-27T05:51:21.598Z,7.53
2019-03-27T05:53:54.257Z,8.33
2019-03-27T05:56:26.671Z,6.67
2019-03-27T05:58:59.055Z,7.90
2019-03-27T06:01:32.097Z,8.00
2019-03-27T06:04:04.708Z,8.20
2019-03-27T06:06:37.153Z,7.63
2019-03-27T06:09:09.731Z,8.00
2019-03-27T06:11:42.193Z,7.83
2019-03-27T06:14:14.657Z,7.77
2019-03-27T06:16:47.808Z,7.70
2019-03-27T06:19:20.187Z,9.17
2019-03-27T06:21:52.679Z,7.90
2019-03-27T06:24:25.118Z,9.90
2019-03-27T06:26:57.530Z,11.57
2019-03-27T06:29:29.982Z,12.30
2019-03-27T06:32:03.109Z,10.70
2019-03-27T06:34:35.502Z,10.30
2019-03-27T06:37:07.952Z,10.17
2019-03-27T06:39:40.367Z,11.50
2019-03-27T06:42:12.818Z,10.37
2019-03-27T06:44:45.245Z,10.37
2019-03-27T06:47:18.411Z,9.80
2019-03-27T06:49:50.834Z,9.97
2019-03-27T06:52:23.623Z,9.93
2019-03-27T06:54:56.048Z,10.27
2019-03-27T06:57:28.483Z,8.67
2019-03-27T07:00:01.090Z,10.33
2019-03-27T07:02:33.883Z,11.37
2019-03-27T07:05:06.745Z,12.27
2019-03-27T07:07:39.624Z,11.33
2019-03-27T07:10:12.395Z,11.60
2019-03-27T07:12:44.810Z,10.30
2019-03-27T07:15:17.269Z,13.27
2019-03-27T07:17:50.383Z,12.10
2019-03-27T07:20:23.326Z,12.53
2019-03-27T07:22:55.816Z,14.80
2019-03-27T07:25:28.247Z,11.90
2019-03-27T07:28:00.709Z,13.55
2019-03-27T07:30:33.213Z,12.40
2019-03-27T07:33:07.589Z,12.20
2019-03-27T07:35:40.096Z,11.30
2019-03-27T07:38:12.562Z,11.77
2019-03-27T07:40:45.075Z,13.10
2019-03-27T07:43:17.535Z,13.13
2019-03-27T07:45:49.983Z,14.07
2019-03-27T07:48:22.444Z,12.33
2019-03-27T07:50:55.018Z,12.60
2019-03-27T07:53:27.928Z,13.37
2019-03-27T07:56:00.438Z,12.17
2019-03-27T07:58:32.908Z,12.17
2019-03-27T08:01:05.385Z,12.40
2019-03-27T08:03:37.787Z,13.80
2019-03-27T08:06:10.606Z,13.00
2019-03-27T08:08:43.201Z,12.13
2019-03-27T08:11:15.827Z,13.57
2019-03-27T08:13:48.274Z,10.80
2019-03-27T08:16:20.763Z,11.23
2019-03-27T08:19:06.621Z,11.47
2019-03-27T08:21:30.892Z,10.37
2019-03-27T08:24:01.575Z,9.13
2019-03-27T08:26:34.091Z,9.80
2019-03-27T08:29:06.534Z,8.03
2019-03-27T08:31:38.995Z,9.77
2019-03-27T08:34:11.438Z,7.67
2019-03-27T08:36:44.023Z,8.60
2019-03-27T08:39:16.499Z,10.20
2019-03-27T08:41:48.999Z,8.80
2019-03-27T08:44:21.460Z,10.63
2019-03-27T08:46:53.936Z,10.27
2019-03-27T08:49:26.518Z,9.90
2019-03-27T08:51:59.223Z,10.53
2019-03-27T08:54:32.010Z,11.30
2019-03-27T08:57:04.975Z,8.70
2019-03-27T08:59:37.451Z,10.33
2019-03-27T09:02:10.448Z,11.43
2019-03-27T09:04:42.844Z,11.87
2019-03-27T09:07:15.314Z,8.33
2019-03-27T09:09:47.792Z,8.60
2019-03-27T09:12:20.472Z,8.57
2019-03-27T09:14:53.094Z,8.83
2019-03-27T09:17:25.537Z,8.47
2019-03-27T09:19:58.036Z,6.83
2019-03-27T09:22:30.585Z,9.00
2019-03-27T09:25:03.014Z,8.03
2019-03-27T09:27:36.647Z,6.60
2019-03-27T09:30:10.941Z,7.00
2019-03-27T09:32:43.649Z,6.83
2019-03-27T09:35:16.107Z,8.18
2019-03-27T09:37:48.557Z,7.05
2019-03-27T09:40:23.879Z,7.50
2019-03-27T09:48:00.903Z,6.57
2019-03-27T09:50:33.383Z,6.90
2019-03-27T09:53:06.132Z,6.67
2019-03-27T09:55:38.590Z,6.40
2019-03-27T09:58:11.141Z,6.93
2019-03-27T10:01:11.983Z,6.40
2019-03-27T10:03:44.485Z,6.87
2019-03-27T10:06:17.062Z,5.83
2019-03-27T10:08:49.636Z,6.60
2019-03-27T10:11:23.863Z,6.63
2019-03-27T10:13:56.422Z,5.80
2019-03-27T10:16:28.993Z,5.70
2019-03-27T10:19:01.461Z,6.60
2019-03-27T10:21:33.888Z,6.30
2019-03-27T10:24:06.346Z,8.40
2019-03-27T10:26:42.487Z,7.37
2019-03-27T10:29:13.894Z,7.55
2019-03-27T10:31:46.398Z,6.60
2019-03-27T10:34:18.853Z,6.60
2019-03-27T10:36:51.429Z,6.20
2019-03-27T10:39:24.081Z,5.73
2019-03-27T10:41:56.538Z,5.77
2019-03-27T10:44:29.194Z,5.47
2019-03-27T10:47:01.732Z,6.50
2019-03-27T10:49:34.624Z,5.30
2019-03-27T10:52:07.238Z,5.60
2019-03-27T10:54:39.838Z,6.60
2019-03-27T10:57:12.276Z,6.40
2019-03-27T10:59:44.899Z,6.47
2019-03-27T11:02:17.335Z,5.90
2019-03-27T11:04:49.846Z,6.07
2019-03-27T11:07:22.329Z,6.20
2019-03-27T11:09:54.771Z,4.57
2019-03-27T11:12:27.241Z,5.93
2019-03-27T11:14:59.719Z,4.87
2019-03-27T11:17:32.594Z,5.17
2019-03-27T11:20:05.618Z,4.83
2019-03-27T11:22:38.181Z,5.50
2019-03-27T11:25:10.806Z,6.20
2019-03-27T11:27:43.306Z,5.20
2019-03-27T11:30:16.366Z,5.30
2019-03-27T11:32:48.973Z,4.50
2019-03-27T11:35:21.381Z,5.00
2019-03-27T11:37:53.927Z,5.67
2019-03-27T11:40:26.448Z,3.70
2019-03-27T11:42:59.080Z,4.33
2019-03-27T11:45:31.540Z,4.07
2019-03-27T11:48:04.201Z,4.10
2019-03-27T11:50:44.710Z,3.70
2019-03-27T11:53:11.749Z,4.00
2019-03-27T11:55:44.160Z,3.33
2019-03-27T11:58:17.317Z,3.10
2019-03-27T12:00:54.869Z,3.87
2019-03-27T12:03:24.274Z,4.10
2019-03-27T12:05:56.708Z,3.90
2019-03-27T12:08:29.352Z,4.20
2019-03-27T12:11:01.779Z,3.90
2019-03-27T12:13:34.324Z,4.43
2019-03-27T12:16:07.643Z,4.07
2019-03-27T12:18:40.285Z,4.20
2019-03-27T12:21:13.011Z,4.17
2019-03-27T12:23:45.499Z,4.30
2019-03-27T12:26:18.512Z,4.60
2019-03-27T12:28:51.162Z,5.50
2019-03-27T12:31:23.963Z,4.20
2019-03-27T12:33:56.722Z,4.70
2019-03-27T12:36:29.140Z,4.40
2019-03-27T12:39:01.854Z,4.40
2019-03-27T12:41:34.327Z,4.23
2019-03-27T12:44:06.871Z,5.00
2019-03-27T12:46:39.319Z,4.90
2019-03-27T12:49:11.849Z,4.67
2019-03-27T12:51:44.522Z,4.63
2019-03-27T12:54:17.164Z,5.67
2019-03-27T12:56:49.601Z,6.00
2019-03-27T12:59:22.106Z,4.20
2019-03-27T13:01:54.621Z,4.13
2019-03-27T13:04:27.516Z,4.10
2019-03-27T13:07:00.130Z,3.63
2019-03-27T13:09:32.651Z,4.00
2019-03-27T13:12:05.934Z,3.73
2019-03-27T13:14:38.516Z,5.37
2019-03-27T13:17:10.974Z,4.40
2019-03-27T13:19:43.611Z,4.20
2019-03-27T13:22:16.054Z,3.87
2019-03-27T13:24:48.623Z,3.70
2019-03-27T13:27:21.239Z,3.77
2019-03-27T13:29:53.791Z,3.20
2019-03-27T13:32:26.233Z,3.80
2019-03-27T13:34:59.004Z,3.40
2019-03-27T13:37:31.483Z,3.87
2019-03-27T13:40:04.349Z,4.27
2019-03-27T13:42:36.828Z,3.35
2019-03-27T13:45:09.946Z,3.50
2019-03-27T13:47:42.460Z,3.75
2019-03-27T13:50:17.546Z,4.23
2019-03-27T13:52:50.270Z,3.30
2019-03-27T13:55:23.115Z,3.73
2019-03-27T13:57:55.587Z,3.10
2019-03-27T14:00:28.177Z,2.90
2019-03-27T14:03:00.732Z,2.87
2019-03-27T14:05:33.167Z,2.60
2019-03-27T14:08:05.990Z,2.70
2019-03-27T14:10:38.810Z,3.27
2019-03-27T14:13:11.466Z,3.13
2019-03-27T14:15:43.913Z,3.00
2019-03-27T14:18:16.453Z,2.70
2019-03-27T14:20:48.875Z,2.73
2019-03-27T14:23:22.740Z,2.57
2019-03-27T14:25:55.185Z,2.33
2019-03-27T14:28:27.742Z,2.87
2019-03-27T14:31:00.926Z,2.90
2019-03-27T14:33:33.469Z,3.10
2019-03-27T14:36:06.040Z,2.90
2019-03-27T14:38:38.581Z,3.03
2019-03-27T14:41:11.494Z,3.60
2019-03-27T14:43:44.196Z,3.77
2019-03-27T14:46:16.750Z,3.17
2019-03-27T14:48:49.608Z,3.00
2019-03-27T14:51:22.437Z,2.80
2019-03-27T14:53:55.122Z,2.80
2019-03-27T14:56:27.735Z,2.40
2019-03-27T14:59:00.464Z,3.20
2019-03-27T15:01:35.507Z,2.40
2019-03-27T15:04:07.189Z,2.47
2019-03-27T15:06:39.653Z,2.43
2019-03-27T15:09:12.218Z,2.80
2019-03-27T15:11:44.664Z,3.10
2019-03-27T15:14:17.363Z,2.73
2019-03-27T15:16:49.809Z,3.10
2019-03-27T15:19:22.289Z,2.60
2019-03-27T15:21:54.835Z,2.47
2019-03-27T15:24:27.384Z,2.70
2019-03-27T15:26:59.859Z,2.50
2019-03-27T15:29:32.764Z,2.60
2019-03-27T15:32:05.357Z,2.90
2019-03-27T15:34:37.952Z,2.90
2019-03-27T15:37:10.410Z,3.40
2019-03-27T15:39:42.883Z,3.50
2019-03-27T15:42:15.617Z,2.75
2019-03-27T15:44:49.928Z,2.70
2019-03-27T15:47:22.699Z,2.57
2019-03-27T15:49:55.178Z,2.57
2019-03-27T15:52:36.458Z,2.20
2019-03-27T15:55:02.592Z,3.70
2019-03-27T15:57:35.116Z,3.60
2019-03-27T16:00:08.516Z,3.30
2019-03-27T16:02:41.154Z,3.17
2019-03-27T16:05:13.663Z,3.90
2019-03-27T16:07:46.219Z,4.00
2019-03-27T16:10:18.742Z,4.70
2019-03-27T16:12:51.252Z,3.70
2019-03-27T16:15:23.908Z,4.10
2019-03-27T16:17:56.772Z,3.70
2019-03-27T16:20:29.259Z,4.33
2019-03-27T16:23:01.832Z,3.10
2019-03-27T16:25:34.414Z,3.23
2019-03-27T16:28:07.278Z,3.07
2019-03-27T16:30:39.868Z,2.60
2019-03-27T16:33:12.495Z,3.97
2019-03-27T16:35:45.192Z,3.30
2019-03-27T16:38:17.641Z,3.50
2019-03-27T16:40:51.182Z,3.70
2019-03-27T16:43:23.687Z,3.27
2019-03-27T16:45:56.187Z,3.33
2019-03-27T16:48:28.886Z,3.50
2019-03-27T16:51:01.516Z,3.57
2019-03-27T16:53:34.598Z,4.30
2019-03-27T16:56:07.193Z,3.60
2019-03-27T16:58:39.693Z,4.23
2019-03-27T17:01:12.367Z,4.33
2019-03-27T17:03:45.056Z,3.37
2019-03-27T17:06:17.677Z,3.80
2019-03-27T17:08:54.923Z,3.83
2019-03-27T17:11:27.407Z,3.53
2019-03-27T17:13:59.870Z,3.47
2019-03-27T17:16:32.850Z,3.30
2019-03-27T17:19:05.631Z,3.20
2019-03-27T17:21:38.117Z,3.40
2019-03-27T17:24:10.966Z,3.90
2019-03-27T17:26:43.450Z,3.20
2019-03-27T17:29:16.020Z,4.80
2019-03-27T17:31:49.022Z,3.73
2019-03-27T17:34:21.656Z,3.17
2019-03-27T17:36:54.142Z,2.70
2019-03-27T17:39:26.613Z,3.00
2019-03-27T17:41:59.106Z,4.10
2019-03-27T17:44:31.706Z,6.00
2019-03-27T17:47:04.211Z,5.17
2019-03-27T17:49:36.839Z,2.63
2019-03-27T17:52:09.431Z,2.30
2019-03-27T17:54:42.369Z,2.93
2019-03-27T17:57:15.024Z,2.53
2019-03-27T17:59:47.566Z,2.73
2019-03-27T18:02:20.356Z,2.87
2019-03-27T18:04:53.107Z,3.10
2019-03-27T18:07:25.682Z,3.00
2019-03-27T18:09:58.215Z,3.43
2019-03-27T18:12:30.820Z,3.83
2019-03-27T18:15:03.891Z,3.53
2019-03-27T18:17:36.371Z,3.53
2019-03-27T18:20:09.009Z,3.30
2019-03-27T18:22:42.046Z,3.10
2019-03-27T18:25:14.716Z,3.00
2019-03-27T18:27:47.384Z,2.60
2019-03-27T18:30:20.103Z,3.20
2019-03-27T18:32:52.711Z,3.00
2019-03-27T18:35:25.258Z,2.80
2019-03-27T18:37:57.917Z,2.80
2019-03-27T18:40:30.440Z,3.23
2019-03-27T18:43:02.904Z,4.30
2019-03-27T18:45:35.535Z,3.90
2019-03-27T18:48:08.130Z,4.73
2019-03-27T18:50:40.692Z,3.00
2019-03-27T18:53:13.336Z,3.97
2019-03-27T18:55:47.027Z,4.33
2019-03-27T18:58:19.678Z,4.90
2019-03-27T19:00:52.356Z,4.80
2019-03-27T19:03:24.872Z,5.47
2019-03-27T19:05:57.582Z,8.93
2019-03-27T19:08:30.411Z,4.57
2019-03-27T19:11:03.027Z,6.77
2019-03-27T19:13:35.505Z,6.60
2019-03-27T19:16:08.019Z,6.43
2019-03-27T19:18:40.548Z,5.40
2019-03-27T19:21:13.080Z,4.20
2019-03-27T19:23:45.962Z,4.42
2019-03-27T19:26:18.525Z,4.27
2019-03-27T19:28:53.788Z,4.17
2019-03-27T19:31:25.356Z,4.37
2019-03-27T19:33:57.931Z,4.30
2019-03-27T19:36:30.412Z,4.97
2019-03-27T19:39:03.618Z,4.83
2019-03-27T19:41:36.273Z,5.20
2019-03-27T19:44:09.341Z,4.03
2019-03-27T19:46:42.088Z,5.07
2019-03-27T19:49:14.735Z,4.55
2019-03-27T19:51:47.155Z,5.10
2019-03-27T19:54:27.172Z,4.57
2019-03-27T19:56:55.268Z,5.23
2019-03-27T19:59:28.043Z,5.47
2019-03-27T20:02:00.665Z,5.03
2019-03-27T20:04:33.228Z,5.17
2019-03-27T20:07:05.883Z,5.60
2019-03-27T20:09:39.018Z,5.23
2019-03-27T20:12:11.589Z,4.25
2019-03-27T20:14:44.116Z,5.13
2019-03-27T20:17:16.665Z,4.73
2019-03-27T20:19:49.270Z,5.33
2019-03-27T20:22:21.859Z,5.77
2019-03-27T20:24:54.410Z,4.93
2019-03-27T20:27:27.471Z,4.97
2019-03-27T20:29:59.957Z,9.67
2019-03-27T20:32:32.524Z,7.60
2019-03-27T20:35:05.511Z,7.63
2019-03-27T20:37:38.017Z,7.13
2019-03-27T20:40:11.478Z,9.53
2019-03-27T20:42:44.705Z,14.20
2019-03-27T20:45:17.302Z,18.30
2019-03-27T20:47:49.795Z,14.87
2019-03-27T20:50:22.398Z,8.60
2019-03-27T20:52:56.246Z,6.53
2019-03-27T20:55:31.093Z,7.30
2019-03-27T20:58:03.876Z,6.33
2019-03-27T21:00:37.674Z,5.20
2019-03-27T21:03:10.241Z,5.23
2019-03-27T21:05:42.928Z,5.97
2019-03-27T21:08:15.547Z,6.10
2019-03-27T21:10:48.128Z,5.50
2019-03-27T21:13:20.905Z,5.27
2019-03-27T21:15:53.590Z,5.97
2019-03-27T21:18:26.167Z,5.00
2019-03-27T21:20:58.770Z,6.27
2019-03-27T21:23:31.217Z,4.83
2019-03-27T21:26:03.777Z,5.50
2019-03-27T21:28:36.617Z,6.20
2019-03-27T21:31:09.158Z,6.00
2019-03-27T21:33:41.730Z,6.50
2019-03-27T21:36:14.229Z,5.30
2019-03-27T21:38:46.743Z,5.60
2019-03-27T21:41:19.280Z,5.77
2019-03-27T21:43:52.270Z,5.93
2019-03-27T21:46:24.798Z,5.17
2019-03-27T21:48:57.422Z,4.90
2019-03-27T21:51:29.905Z,4.20
2019-03-27T21:54:02.496Z,4.70
2019-03-27T21:56:35.308Z,4.90
2019-03-27T21:59:08.253Z,5.23
2019-03-27T22:01:41.088Z,5.27
2019-03-27T22:04:13.515Z,5.80
2019-03-27T22:06:46.221Z,5.45
2019-03-27T22:09:18.764Z,4.53
2019-03-27T22:11:51.322Z,5.10
2019-03-27T22:14:24.218Z,5.67
2019-03-27T22:16:56.690Z,6.63
2019-03-27T22:19:29.130Z,6.90
2019-03-27T22:22:02.470Z,9.10
2019-03-27T22:24:34.967Z,7.20
2019-03-27T22:27:07.490Z,8.17
2019-03-27T22:29:41.455Z,9.20
2019-03-27T22:32:13.958Z,7.10
2019-03-27T22:34:46.798Z,7.10
2019-03-27T22:37:19.336Z,6.30
2019-03-27T22:39:51.824Z,6.07
2019-03-27T22:42:24.307Z,5.30
2019-03-27T22:44:57.189Z,5.30
2019-03-27T22:47:29.754Z,5.63
2019-03-27T22:50:02.306Z,4.83
2019-03-27T22:52:34.840Z,4.57
2019-03-27T22:55:08.090Z,4.80
2019-03-27T22:57:41.795Z,4.47
2019-03-27T23:00:15.279Z,4.97
2019-03-27T23:02:47.893Z,5.10
2019-03-27T23:05:21.964Z,5.53
2019-03-27T23:07:54.780Z,6.03
2019-03-27T23:10:27.279Z,5.90
2019-03-27T23:12:59.810Z,5.53
2019-03-27T23:15:32.577Z,5.20
2019-03-27T23:18:05.096Z,4.50
2019-03-27T23:20:37.759Z,4.87
2019-03-27T23:23:10.265Z,4.27
2019-03-27T23:25:42.880Z,3.67
2019-03-27T23:28:15.394Z,5.00
2019-03-27T23:30:47.810Z,3.80
2019-03-27T23:33:21.474Z,3.80
2019-03-27T23:35:53.913Z,3.83
2019-03-27T23:38:26.319Z,7.00
2019-03-27T23:40:58.852Z,5.50
2019-03-27T23:43:31.323Z,5.00
2019-03-27T23:46:03.831Z,4.40
2019-03-27T23:48:36.891Z,6.05
2019-03-27T23:51:09.364Z,7.60
2019-03-27T23:53:41.771Z,8.98
2019-03-27T23:56:16.969Z,10.37
2019-03-27T23:58:48.763Z,14.15
